sensor_id;sensor_type;location;lat;lon;timestamp;temperature;humidity
63976;DHT22;50167;47.958;21.780;2022-07-29T00:01:13;21.91;57.68
63976;DHT22;50167;47.958;21.780;2022-07-29T00:03:38;21.85;57.67
63976;DHT22;50167;47.958;21.780;2022-07-29T00:06:04;21.86;57.46
63976;DHT22;50167;47.958;21.780;2022-07-29T00:08:30;21.86;57.58
63976;DHT22;50167;47.958;21.780;2022-07-29T00:10:56;21.83;57.75
63976;DHT22;50167;47.958;21.780;2022-07-29T00:13:23;21.82;57.42
63976;DHT22;50167;47.958;21.780;2022-07-29T00:15:49;21.79;58.01
63976;DHT22;50167;47.958;21.780;2022-07-29T00:18:16;21.80;57.65
63976;DHT22;50167;47.958;21.780;2022-07-29T00:20:42;21.76;57.52
63976;DHT22;50167;47.958;21.780;2022-07-29T00:23:08;21.75;57.69
63976;DHT22;50167;47.958;21.780;2022-07-29T00:25:34;21.69;57.54
63976;DHT22;50167;47.958;21.780;2022-07-29T00:28:00;21.65;58.41
63976;DHT22;50167;47.958;21.780;2022-07-29T00:30:26;21.61;57.91
63976;DHT22;50167;47.958;21.780;2022-07-29T00:32:52;21.55;57.93
63976;DHT22;50167;47.958;21.780;2022-07-29T00:35:20;21.52;58.25
63976;DHT22;50167;47.958;21.780;2022-07-29T00:38:05;21.44;58.22
63976;DHT22;50167;47.958;21.780;2022-07-29T00:40:31;21.40;57.98
63976;DHT22;50167;47.958;21.780;2022-07-29T00:42:57;21.34;58.33
63976;DHT22;50167;47.958;21.780;2022-07-29T00:45:23;21.33;58.33
63976;DHT22;50167;47.958;21.780;2022-07-29T00:47:49;21.28;58.61
63976;DHT22;50167;47.958;21.780;2022-07-29T00:50:15;21.22;58.56
63976;DHT22;50167;47.958;21.780;2022-07-29T00:52:42;21.21;58.58
63976;DHT22;50167;47.958;21.780;2022-07-29T00:55:12;21.18;59.07
63976;DHT22;50167;47.958;21.780;2022-07-29T00:57:38;21.17;59.37
63976;DHT22;50167;47.958;21.780;2022-07-29T01:00:07;21.20;59.58
63976;DHT22;50167;47.958;21.780;2022-07-29T01:02:34;21.17;59.19
63976;DHT22;50167;47.958;21.780;2022-07-29T01:05:01;21.18;59.68
63976;DHT22;50167;47.958;21.780;2022-07-29T01:07:28;21.17;60.05
63976;DHT22;50167;47.958;21.780;2022-07-29T01:09:55;21.17;59.52
63976;DHT22;50167;47.958;21.780;2022-07-29T01:12:26;21.17;60.42
63976;DHT22;50167;47.958;21.780;2022-07-29T01:14:53;21.17;60.42
63976;DHT22;50167;47.958;21.780;2022-07-29T01:20:17;21.18;60.68
63976;DHT22;50167;47.958;21.780;2022-07-29T01:32:01;21.07;60.93
63976;DHT22;50167;47.958;21.780;2022-07-29T01:34:50;21.04;61.39
63976;DHT22;50167;47.958;21.780;2022-07-29T01:39:54;20.94;61.31
63976;DHT22;50167;47.958;21.780;2022-07-29T01:47:38;20.80;61.94
63976;DHT22;50167;47.958;21.780;2022-07-29T01:50:07;20.78;61.39
63976;DHT22;50167;47.958;21.780;2022-07-29T01:52:38;20.72;61.38
63976;DHT22;50167;47.958;21.780;2022-07-29T01:55:09;20.73;62.63
63976;DHT22;50167;47.958;21.780;2022-07-29T01:57:35;21.91;67.10
63976;DHT22;50167;47.958;21.780;2022-07-29T02:00:04;22.99;60.65
63976;DHT22;50167;47.958;21.780;2022-07-29T02:02:32;23.65;65.00
63976;DHT22;50167;47.958;21.780;2022-07-29T02:05:00;24.19;66.89
63976;DHT22;50167;47.958;21.780;2022-07-29T02:07:29;24.61;64.66
63976;DHT22;50167;47.958;21.780;2022-07-29T02:09:55;24.91;64.36
63976;DHT22;50167;47.958;21.780;2022-07-29T02:12:26;25.12;57.71
63976;DHT22;50167;47.958;21.780;2022-07-29T02:14:54;24.71;56.32
63976;DHT22;50167;47.958;21.780;2022-07-29T02:20:19;23.16;53.43
63976;DHT22;50167;47.958;21.780;2022-07-29T02:22:48;22.68;54.72
63976;DHT22;50167;47.958;21.780;2022-07-29T02:25:18;22.33;54.26
63976;DHT22;50167;47.958;21.780;2022-07-29T02:27:46;21.97;57.80
63976;DHT22;50167;47.958;21.780;2022-07-29T02:30:13;21.73;57.39
63976;DHT22;50167;47.958;21.780;2022-07-29T02:32:51;21.49;57.48
63976;DHT22;50167;47.958;21.780;2022-07-29T02:35:20;21.28;58.08
63976;DHT22;50167;47.958;21.780;2022-07-29T02:38:20;21.09;58.99
63976;DHT22;50167;47.958;21.780;2022-07-29T02:44:15;20.79;59.81
63976;DHT22;50167;47.958;21.780;2022-07-29T02:46:45;20.66;59.52
63976;DHT22;50167;47.958;21.780;2022-07-29T02:49:31;20.59;60.09
63976;DHT22;50167;47.958;21.780;2022-07-29T02:52:02;20.48;61.85
63976;DHT22;50167;47.958;21.780;2022-07-29T02:54:44;20.38;60.94
63976;DHT22;50167;47.958;21.780;2022-07-29T02:59:53;20.27;61.26
63976;DHT22;50167;47.958;21.780;2022-07-29T03:02:21;20.20;61.23
63976;DHT22;50167;47.958;21.780;2022-07-29T03:04:47;20.55;66.52
63976;DHT22;50167;47.958;21.780;2022-07-29T03:07:15;21.99;72.35
63976;DHT22;50167;47.958;21.780;2022-07-29T03:09:42;22.99;71.52
63976;DHT22;50167;47.958;21.780;2022-07-29T03:12:08;23.57;68.30
63976;DHT22;50167;47.958;21.780;2022-07-29T03:14:35;23.98;67.35
63976;DHT22;50167;47.958;21.780;2022-07-29T03:17:01;24.26;64.49
63976;DHT22;50167;47.958;21.780;2022-07-29T03:19:28;24.47;63.31
63976;DHT22;50167;47.958;21.780;2022-07-29T03:21:58;24.63;59.98
63976;DHT22;50167;47.958;21.780;2022-07-29T03:24:25;23.95;56.11
63976;DHT22;50167;47.958;21.780;2022-07-29T03:26:51;23.16;53.83
63976;DHT22;50167;47.958;21.780;2022-07-29T03:29:17;22.62;53.53
63976;DHT22;50167;47.958;21.780;2022-07-29T03:31:43;22.21;54.17
63976;DHT22;50167;47.958;21.780;2022-07-29T03:34:09;21.89;55.05
63976;DHT22;50167;47.958;21.780;2022-07-29T03:36:35;21.64;55.79
63976;DHT22;50167;47.958;21.780;2022-07-29T03:39:00;21.40;55.47
63976;DHT22;50167;47.958;21.780;2022-07-29T03:41:27;21.20;56.93
63976;DHT22;50167;47.958;21.780;2022-07-29T03:43:54;21.01;59.23
63976;DHT22;50167;47.958;21.780;2022-07-29T03:46:21;20.87;58.81
63976;DHT22;50167;47.958;21.780;2022-07-29T03:48:49;20.75;59.31
63976;DHT22;50167;47.958;21.780;2022-07-29T03:51:16;20.94;64.16
63976;DHT22;50167;47.958;21.780;2022-07-29T03:53:42;22.25;66.74
63976;DHT22;50167;47.958;21.780;2022-07-29T03:56:07;23.23;63.07
63976;DHT22;50167;47.958;21.780;2022-07-29T03:58:35;23.89;61.54
63976;DHT22;50167;47.958;21.780;2022-07-29T04:01:02;24.36;62.36
63976;DHT22;50167;47.958;21.780;2022-07-29T04:03:28;24.73;61.51
63976;DHT22;50167;47.958;21.780;2022-07-29T04:06:00;25.05;60.48
63976;DHT22;50167;47.958;21.780;2022-07-29T04:08:26;25.35;60.23
63976;DHT22;50167;47.958;21.780;2022-07-29T04:10:52;25.40;56.39
63976;DHT22;50167;47.958;21.780;2022-07-29T04:13:20;24.66;52.92
63976;DHT22;50167;47.958;21.780;2022-07-29T04:15:46;23.96;53.52
63976;DHT22;50167;47.958;21.780;2022-07-29T04:18:12;23.44;52.27
63976;DHT22;50167;47.958;21.780;2022-07-29T04:20:37;23.07;56.53
63976;DHT22;50167;47.958;21.780;2022-07-29T04:23:03;22.76;55.84
63976;DHT22;50167;47.958;21.780;2022-07-29T04:25:29;22.52;55.61
63976;DHT22;50167;47.958;21.780;2022-07-29T04:27:55;22.28;56.84
63976;DHT22;50167;47.958;21.780;2022-07-29T04:30:27;22.13;55.60
63976;DHT22;50167;47.958;21.780;2022-07-29T04:32:53;22.02;56.65
63976;DHT22;50167;47.958;21.780;2022-07-29T04:35:19;21.91;60.04
63976;DHT22;50167;47.958;21.780;2022-07-29T04:37:46;21.79;59.16
63976;DHT22;50167;47.958;21.780;2022-07-29T04:40:12;21.72;58.33
63976;DHT22;50167;47.958;21.780;2022-07-29T04:42:38;21.68;60.40
63976;DHT22;50167;47.958;21.780;2022-07-29T04:45:06;21.69;59.48
63976;DHT22;50167;47.958;21.780;2022-07-29T04:47:32;21.73;60.66
63976;DHT22;50167;47.958;21.780;2022-07-29T04:49:57;21.75;61.88
63976;DHT22;50167;47.958;21.780;2022-07-29T04:52:24;21.80;60.99
63976;DHT22;50167;47.958;21.780;2022-07-29T04:54:49;22.64;68.55
63976;DHT22;50167;47.958;21.780;2022-07-29T04:57:15;24.17;70.17
63976;DHT22;50167;47.958;21.780;2022-07-29T04:59:41;25.18;64.62
63976;DHT22;50167;47.958;21.780;2022-07-29T05:02:07;25.77;60.02
63976;DHT22;50167;47.958;21.780;2022-07-29T05:04:33;25.48;55.88
63976;DHT22;50167;47.958;21.780;2022-07-29T05:06:59;24.92;55.03
63976;DHT22;50167;47.958;21.780;2022-07-29T05:09:25;24.57;54.85
63976;DHT22;50167;47.958;21.780;2022-07-29T05:11:50;24.30;55.42
63976;DHT22;50167;47.958;21.780;2022-07-29T05:14:16;24.13;56.26
63976;DHT22;50167;47.958;21.780;2022-07-29T05:16:42;23.99;58.25
63976;DHT22;50167;47.958;21.780;2022-07-29T05:19:09;23.87;57.36
63976;DHT22;50167;47.958;21.780;2022-07-29T05:21:35;23.74;56.93
63976;DHT22;50167;47.958;21.780;2022-07-29T05:24:01;23.67;58.24
63976;DHT22;50167;47.958;21.780;2022-07-29T05:26:27;23.64;59.79
63976;DHT22;50167;47.958;21.780;2022-07-29T05:28:52;23.61;59.10
63976;DHT22;50167;47.958;21.780;2022-07-29T05:31:19;23.61;60.14
63976;DHT22;50167;47.958;21.780;2022-07-29T05:33:45;23.58;59.86
63976;DHT22;50167;47.958;21.780;2022-07-29T05:36:11;23.60;60.52
63976;DHT22;50167;47.958;21.780;2022-07-29T05:38:37;23.60;59.31
63976;DHT22;50167;47.958;21.780;2022-07-29T05:41:04;23.64;59.81
63976;DHT22;50167;47.958;21.780;2022-07-29T05:43:30;23.69;60.37
63976;DHT22;50167;47.958;21.780;2022-07-29T05:45:56;23.71;60.16
63976;DHT22;50167;47.958;21.780;2022-07-29T05:48:22;23.78;59.99
63976;DHT22;50167;47.958;21.780;2022-07-29T05:50:48;23.84;59.23
63976;DHT22;50167;47.958;21.780;2022-07-29T05:53:14;23.85;60.44
63976;DHT22;50167;47.958;21.780;2022-07-29T05:55:40;23.85;60.09
63976;DHT22;50167;47.958;21.780;2022-07-29T05:58:06;23.81;59.39
63976;DHT22;50167;47.958;21.780;2022-07-29T06:00:32;23.83;59.86
63976;DHT22;50167;47.958;21.780;2022-07-29T06:02:58;23.80;59.52
63976;DHT22;50167;47.958;21.780;2022-07-29T06:05:23;23.78;59.53
63976;DHT22;50167;47.958;21.780;2022-07-29T06:07:49;23.81;59.26
63976;DHT22;50167;47.958;21.780;2022-07-29T06:10:15;23.84;59.64
63976;DHT22;50167;47.958;21.780;2022-07-29T06:12:41;23.89;59.33
63976;DHT22;50167;47.958;21.780;2022-07-29T06:15:08;23.96;59.13
63976;DHT22;50167;47.958;21.780;2022-07-29T06:17:34;24.06;58.94
63976;DHT22;50167;47.958;21.780;2022-07-29T06:20:00;24.22;59.59
63976;DHT22;50167;47.958;21.780;2022-07-29T06:22:26;24.40;59.34
63976;DHT22;50167;47.958;21.780;2022-07-29T06:24:52;24.57;59.50
63976;DHT22;50167;47.958;21.780;2022-07-29T06:27:17;24.71;59.62
63976;DHT22;50167;47.958;21.780;2022-07-29T06:29:43;24.84;58.95
63976;DHT22;50167;47.958;21.780;2022-07-29T06:32:09;24.97;58.62
63976;DHT22;50167;47.958;21.780;2022-07-29T06:34:35;25.12;58.90
63976;DHT22;50167;47.958;21.780;2022-07-29T06:37:06;25.21;58.51
63976;DHT22;50167;47.958;21.780;2022-07-29T06:39:38;25.29;58.58
63976;DHT22;50167;47.958;21.780;2022-07-29T06:42:05;25.38;58.68
63976;DHT22;50167;47.958;21.780;2022-07-29T06:44:31;25.40;58.44
63976;DHT22;50167;47.958;21.780;2022-07-29T06:47:00;25.42;58.33
63976;DHT22;50167;47.958;21.780;2022-07-29T06:49:25;25.36;57.97
63976;DHT22;50167;47.958;21.780;2022-07-29T06:51:53;25.33;58.07
63976;DHT22;50167;47.958;21.780;2022-07-29T06:54:19;25.32;58.00
63976;DHT22;50167;47.958;21.780;2022-07-29T06:56:45;25.32;57.77
63976;DHT22;50167;47.958;21.780;2022-07-29T06:59:12;25.33;57.95
63976;DHT22;50167;47.958;21.780;2022-07-29T07:01:40;25.33;57.80
63976;DHT22;50167;47.958;21.780;2022-07-29T07:04:07;25.36;58.17
63976;DHT22;50167;47.958;21.780;2022-07-29T07:06:34;25.49;57.97
63976;DHT22;50167;47.958;21.780;2022-07-29T07:09:00;25.67;57.61
63976;DHT22;50167;47.958;21.780;2022-07-29T07:11:26;25.86;57.70
63976;DHT22;50167;47.958;21.780;2022-07-29T07:13:52;25.97;57.15
63976;DHT22;50167;47.958;21.780;2022-07-29T07:16:19;26.05;57.07
63976;DHT22;50167;47.958;21.780;2022-07-29T07:18:45;26.12;56.81
63976;DHT22;50167;47.958;21.780;2022-07-29T07:21:11;26.14;56.67
63976;DHT22;50167;47.958;21.780;2022-07-29T07:23:37;26.21;56.61
63976;DHT22;50167;47.958;21.780;2022-07-29T07:26:03;26.30;56.57
63976;DHT22;50167;47.958;21.780;2022-07-29T07:28:30;26.46;56.45
63976;DHT22;50167;47.958;21.780;2022-07-29T07:30:56;26.72;56.33
63976;DHT22;50167;47.958;21.780;2022-07-29T07:33:22;26.97;55.90
63976;DHT22;50167;47.958;21.780;2022-07-29T07:35:48;27.18;55.60
63976;DHT22;50167;47.958;21.780;2022-07-29T07:38:14;27.44;55.34
63976;DHT22;50167;47.958;21.780;2022-07-29T07:40:40;27.77;55.07
63976;DHT22;50167;47.958;21.780;2022-07-29T07:43:06;28.10;54.57
63976;DHT22;50167;47.958;21.780;2022-07-29T07:45:32;28.45;54.39
63976;DHT22;50167;47.958;21.780;2022-07-29T07:47:59;28.75;53.25
63976;DHT22;50167;47.958;21.780;2022-07-29T07:50:25;28.96;53.22
63976;DHT22;50167;47.958;21.780;2022-07-29T07:52:53;29.10;52.49
63976;DHT22;50167;47.958;21.780;2022-07-29T07:55:20;29.17;52.47
63976;DHT22;50167;47.958;21.780;2022-07-29T07:57:46;29.14;52.13
63976;DHT22;50167;47.958;21.780;2022-07-29T08:00:14;29.26;51.98
63976;DHT22;50167;47.958;21.780;2022-07-29T08:02:40;29.47;51.92
63976;DHT22;50167;47.958;21.780;2022-07-29T08:05:07;29.71;51.21
63976;DHT22;50167;47.958;21.780;2022-07-29T08:07:33;29.94;50.71
63976;DHT22;50167;47.958;21.780;2022-07-29T08:09:59;30.15;50.19
63976;DHT22;50167;47.958;21.780;2022-07-29T08:12:25;30.32;50.12
63976;DHT22;50167;47.958;21.780;2022-07-29T08:14:50;30.44;49.61
63976;DHT22;50167;47.958;21.780;2022-07-29T08:17:16;30.50;48.86
63976;DHT22;50167;47.958;21.780;2022-07-29T08:19:42;30.47;47.22
63976;DHT22;50167;47.958;21.780;2022-07-29T08:22:08;30.40;47.62
63976;DHT22;50167;47.958;21.780;2022-07-29T08:24:34;30.36;48.27
63976;DHT22;50167;47.958;21.780;2022-07-29T08:27:13;30.36;48.19
63976;DHT22;50167;47.958;21.780;2022-07-29T08:29:39;30.39;48.33
63976;DHT22;50167;47.958;21.780;2022-07-29T08:32:05;30.46;48.19
63976;DHT22;50167;47.958;21.780;2022-07-29T08:34:31;30.57;48.09
63976;DHT22;50167;47.958;21.780;2022-07-29T08:36:58;30.60;47.71
63976;DHT22;50167;47.958;21.780;2022-07-29T08:39:24;30.64;47.59
63976;DHT22;50167;47.958;21.780;2022-07-29T08:41:50;30.71;47.45
63976;DHT22;50167;47.958;21.780;2022-07-29T08:44:17;30.82;47.60
63976;DHT22;50167;47.958;21.780;2022-07-29T08:46:44;30.94;47.55
63976;DHT22;50167;47.958;21.780;2022-07-29T08:49:10;31.08;47.49
63976;DHT22;50167;47.958;21.780;2022-07-29T08:51:37;31.24;47.06
63976;DHT22;50167;47.958;21.780;2022-07-29T08:54:04;31.29;46.89
63976;DHT22;50167;47.958;21.780;2022-07-29T08:56:31;31.29;46.34
63976;DHT22;50167;47.958;21.780;2022-07-29T08:58:58;31.36;46.73
63976;DHT22;50167;47.958;21.780;2022-07-29T09:01:26;31.49;46.43
63976;DHT22;50167;47.958;21.780;2022-07-29T09:03:57;31.72;46.57
63976;DHT22;50167;47.958;21.780;2022-07-29T09:06:24;31.87;46.43
63976;DHT22;50167;47.958;21.780;2022-07-29T09:08:55;31.91;45.80
63976;DHT22;50167;47.958;21.780;2022-07-29T09:11:22;31.98;45.71
63976;DHT22;50167;47.958;21.780;2022-07-29T09:13:48;32.07;45.56
63976;DHT22;50167;47.958;21.780;2022-07-29T09:16:15;32.13;45.57
63976;DHT22;50167;47.958;21.780;2022-07-29T09:18:47;32.28;45.24
63976;DHT22;50167;47.958;21.780;2022-07-29T09:21:20;32.45;45.08
63976;DHT22;50167;47.958;21.780;2022-07-29T09:24:12;32.70;44.46
63976;DHT22;50167;47.958;21.780;2022-07-29T09:26:43;32.87;44.01
63976;DHT22;50167;47.958;21.780;2022-07-29T09:29:18;33.09;44.38
63976;DHT22;50167;47.958;21.780;2022-07-29T09:31:46;33.34;43.99
63976;DHT22;50167;47.958;21.780;2022-07-29T09:34:14;33.50;43.09
63976;DHT22;50167;47.958;21.780;2022-07-29T09:36:45;33.63;41.82
63976;DHT22;50167;47.958;21.780;2022-07-29T09:39:12;33.72;41.47
63976;DHT22;50167;47.958;21.780;2022-07-29T09:41:52;33.78;42.17
63976;DHT22;50167;47.958;21.780;2022-07-29T09:44:19;33.92;42.25
63976;DHT22;50167;47.958;21.780;2022-07-29T09:46:56;34.06;42.18
63976;DHT22;50167;47.958;21.780;2022-07-29T09:49:24;34.20;41.13
63976;DHT22;50167;47.958;21.780;2022-07-29T09:52:07;34.20;40.15
63976;DHT22;50167;47.958;21.780;2022-07-29T09:54:35;34.24;40.51
63976;DHT22;50167;47.958;21.780;2022-07-29T09:57:05;34.24;40.16
63976;DHT22;50167;47.958;21.780;2022-07-29T09:59:32;34.22;40.55
63976;DHT22;50167;47.958;21.780;2022-07-29T10:01:59;34.10;40.04
63976;DHT22;50167;47.958;21.780;2022-07-29T10:04:36;33.95;40.46
63976;DHT22;50167;47.958;21.780;2022-07-29T10:07:03;33.93;40.37
63976;DHT22;50167;47.958;21.780;2022-07-29T10:09:31;34.01;39.97
63976;DHT22;50167;47.958;21.780;2022-07-29T10:12:08;33.99;39.68
63976;DHT22;50167;47.958;21.780;2022-07-29T10:14:39;33.93;40.23
63976;DHT22;50167;47.958;21.780;2022-07-29T10:17:06;33.99;40.46
63976;DHT22;50167;47.958;21.780;2022-07-29T10:19:33;34.05;40.53
63976;DHT22;50167;47.958;21.780;2022-07-29T10:22:02;34.08;40.27
63976;DHT22;50167;47.958;21.780;2022-07-29T10:24:28;34.08;40.10
63976;DHT22;50167;47.958;21.780;2022-07-29T10:27:01;34.06;39.70
63976;DHT22;50167;47.958;21.780;2022-07-29T10:29:29;34.01;39.71
63976;DHT22;50167;47.958;21.780;2022-07-29T10:32:15;34.02;40.25
63976;DHT22;50167;47.958;21.780;2022-07-29T10:37:52;33.93;39.58
63976;DHT22;50167;47.958;21.780;2022-07-29T10:43:27;33.72;39.72
63976;DHT22;50167;47.958;21.780;2022-07-29T10:46:00;33.61;39.76
63976;DHT22;50167;47.958;21.780;2022-07-29T10:48:27;33.53;39.96
63976;DHT22;50167;47.958;21.780;2022-07-29T10:53:24;33.23;40.63
63976;DHT22;50167;47.958;21.780;2022-07-29T10:55:52;33.02;40.70
63976;DHT22;50167;47.958;21.780;2022-07-29T10:58:21;32.83;41.09
63976;DHT22;50167;47.958;21.780;2022-07-29T11:00:52;32.62;41.22
63976;DHT22;50167;47.958;21.780;2022-07-29T11:06:09;32.25;41.83
63976;DHT22;50167;47.958;21.780;2022-07-29T11:08:35;32.06;41.94
63976;DHT22;50167;47.958;21.780;2022-07-29T11:13:55;31.73;42.24
63976;DHT22;50167;47.958;21.780;2022-07-29T11:16:22;31.65;42.57
63976;DHT22;50167;47.958;21.780;2022-07-29T11:21:40;31.35;42.52
63976;DHT22;50167;47.958;21.780;2022-07-29T11:24:17;31.29;42.57
63976;DHT22;50167;47.958;21.780;2022-07-29T11:26:45;31.26;42.72
63976;DHT22;50167;47.958;21.780;2022-07-29T11:29:21;31.26;42.75
63976;DHT22;50167;47.958;21.780;2022-07-29T11:31:51;31.30;42.57
63976;DHT22;50167;47.958;21.780;2022-07-29T11:34:29;31.38;42.67
63976;DHT22;50167;47.958;21.780;2022-07-29T11:47:29;32.31;41.94
63976;DHT22;50167;47.958;21.780;2022-07-29T11:49:56;32.46;41.43
63976;DHT22;50167;47.958;21.780;2022-07-29T11:52:23;32.63;41.10
63976;DHT22;50167;47.958;21.780;2022-07-29T11:54:50;32.78;41.33
63976;DHT22;50167;47.958;21.780;2022-07-29T11:57:17;32.89;41.37
63976;DHT22;50167;47.958;21.780;2022-07-29T11:59:45;33.02;41.54
63976;DHT22;50167;47.958;21.780;2022-07-29T12:02:12;33.16;41.23
63976;DHT22;50167;47.958;21.780;2022-07-29T12:04:55;33.31;41.42
63976;DHT22;50167;47.958;21.780;2022-07-29T12:07:26;33.48;40.67
63976;DHT22;50167;47.958;21.780;2022-07-29T12:09:53;33.75;40.81
63976;DHT22;50167;47.958;21.780;2022-07-29T12:12:20;33.98;40.38
63976;DHT22;50167;47.958;21.780;2022-07-29T12:14:46;34.19;39.96
63976;DHT22;50167;47.958;21.780;2022-07-29T12:17:29;34.43;40.22
63976;DHT22;50167;47.958;21.780;2022-07-29T12:19:57;34.70;39.28
63976;DHT22;50167;47.958;21.780;2022-07-29T12:22:39;34.94;39.01
63976;DHT22;50167;47.958;21.780;2022-07-29T12:25:08;35.25;39.43
63976;DHT22;50167;47.958;21.780;2022-07-29T12:27:38;35.51;38.63
63976;DHT22;50167;47.958;21.780;2022-07-29T12:30:09;35.69;37.96
63976;DHT22;50167;47.958;21.780;2022-07-29T12:32:37;35.81;38.41
63976;DHT22;50167;47.958;21.780;2022-07-29T12:35:05;35.86;36.87
63976;DHT22;50167;47.958;21.780;2022-07-29T12:37:38;35.89;36.43
63976;DHT22;50167;47.958;21.780;2022-07-29T12:40:06;35.94;37.26
63976;DHT22;50167;47.958;21.780;2022-07-29T12:42:33;35.89;36.50
63976;DHT22;50167;47.958;21.780;2022-07-29T12:45:02;35.87;36.64
63976;DHT22;50167;47.958;21.780;2022-07-29T12:47:29;35.87;36.47
63976;DHT22;50167;47.958;21.780;2022-07-29T12:50:13;36.01;36.35
63976;DHT22;50167;47.958;21.780;2022-07-29T12:52:41;36.34;35.93
63976;DHT22;50167;47.958;21.780;2022-07-29T12:55:11;36.82;35.19
63976;DHT22;50167;47.958;21.780;2022-07-29T12:57:50;37.43;34.74
63976;DHT22;50167;47.958;21.780;2022-07-29T13:00:22;38.25;34.41
63976;DHT22;50167;47.958;21.780;2022-07-29T13:02:56;39.04;32.56
63976;DHT22;50167;47.958;21.780;2022-07-29T13:05:23;39.76;30.78
63976;DHT22;50167;47.958;21.780;2022-07-29T13:07:50;40.33;31.65
63976;DHT22;50167;47.958;21.780;2022-07-29T13:21:18;42.42;26.31
63976;DHT22;50167;47.958;21.780;2022-07-29T13:23:45;42.60;27.45
63976;DHT22;50167;47.958;21.780;2022-07-29T13:26:11;42.57;26.11
63976;DHT22;50167;47.958;21.780;2022-07-29T13:28:38;42.50;24.43
63976;DHT22;50167;47.958;21.780;2022-07-29T13:31:04;42.54;24.59
63976;DHT22;50167;47.958;21.780;2022-07-29T13:33:31;42.77;25.98
63976;DHT22;50167;47.958;21.780;2022-07-29T13:35:56;43.12;24.88
63976;DHT22;50167;47.958;21.780;2022-07-29T13:38:23;43.56;24.82
63976;DHT22;50167;47.958;21.780;2022-07-29T13:40:49;44.00;23.97
63976;DHT22;50167;47.958;21.780;2022-07-29T13:43:16;44.44;22.84
63976;DHT22;50167;47.958;21.780;2022-07-29T13:45:42;44.91;23.64
63976;DHT22;50167;47.958;21.780;2022-07-29T13:48:08;45.32;22.57
63976;DHT22;50167;47.958;21.780;2022-07-29T13:50:54;45.47;20.58
63976;DHT22;50167;47.958;21.780;2022-07-29T13:53:21;45.53;23.13
63976;DHT22;50167;47.958;21.780;2022-07-29T13:55:47;45.61;20.90
63976;DHT22;50167;47.958;21.780;2022-07-29T13:58:13;45.81;21.26
63976;DHT22;50167;47.958;21.780;2022-07-29T14:00:39;45.99;21.52
63976;DHT22;50167;47.958;21.780;2022-07-29T14:03:05;46.22;20.13
63976;DHT22;50167;47.958;21.780;2022-07-29T14:05:32;46.51;20.35
63976;DHT22;50167;47.958;21.780;2022-07-29T14:08:01;46.46;21.51
63976;DHT22;50167;47.958;21.780;2022-07-29T14:10:27;46.24;20.81
63976;DHT22;50167;47.958;21.780;2022-07-29T14:12:53;46.14;21.23
63976;DHT22;50167;47.958;21.780;2022-07-29T14:15:19;45.77;21.16
63976;DHT22;50167;47.958;21.780;2022-07-29T14:17:45;45.53;20.42
63976;DHT22;50167;47.958;21.780;2022-07-29T14:20:11;45.76;19.89
63976;DHT22;50167;47.958;21.780;2022-07-29T14:22:38;46.10;19.67
63976;DHT22;50167;47.958;21.780;2022-07-29T14:25:05;46.49;19.72
63976;DHT22;50167;47.958;21.780;2022-07-29T14:27:37;46.87;19.04
63976;DHT22;50167;47.958;21.780;2022-07-29T14:30:06;47.20;18.92
63976;DHT22;50167;47.958;21.780;2022-07-29T14:32:32;47.52;18.84
63976;DHT22;50167;47.958;21.780;2022-07-29T14:35:00;47.79;18.53
63976;DHT22;50167;47.958;21.780;2022-07-29T14:37:26;48.03;19.04
63976;DHT22;50167;47.958;21.780;2022-07-29T14:39:52;48.20;18.32
63976;DHT22;50167;47.958;21.780;2022-07-29T14:42:19;48.36;18.26
63976;DHT22;50167;47.958;21.780;2022-07-29T14:44:49;48.40;18.79
63976;DHT22;50167;47.958;21.780;2022-07-29T14:47:15;48.47;18.96
63976;DHT22;50167;47.958;21.780;2022-07-29T14:50:00;48.45;18.76
63976;DHT22;50167;47.958;21.780;2022-07-29T14:52:26;48.41;18.99
63976;DHT22;50167;47.958;21.780;2022-07-29T14:54:53;48.29;18.52
63976;DHT22;50167;47.958;21.780;2022-07-29T14:57:23;48.15;18.63
63976;DHT22;50167;47.958;21.780;2022-07-29T14:59:49;48.06;18.48
63976;DHT22;50167;47.958;21.780;2022-07-29T15:02:22;47.59;18.84
63976;DHT22;50167;47.958;21.780;2022-07-29T15:04:48;46.94;19.30
63976;DHT22;50167;47.958;21.780;2022-07-29T15:07:14;46.08;19.78
63976;DHT22;50167;47.958;21.780;2022-07-29T15:09:43;45.27;20.78
63976;DHT22;50167;47.958;21.780;2022-07-29T15:12:16;44.62;21.58
63976;DHT22;50167;47.958;21.780;2022-07-29T15:14:48;44.20;21.81
63976;DHT22;50167;47.958;21.780;2022-07-29T15:17:14;43.69;22.48
63976;DHT22;50167;47.958;21.780;2022-07-29T15:19:40;43.05;22.59
63976;DHT22;50167;47.958;21.780;2022-07-29T15:22:07;42.53;22.90
63976;DHT22;50167;47.958;21.780;2022-07-29T15:24:33;42.53;22.78
63976;DHT22;50167;47.958;21.780;2022-07-29T15:26:59;42.73;22.28
63976;DHT22;50167;47.958;21.780;2022-07-29T15:29:25;43.05;21.10
63976;DHT22;50167;47.958;21.780;2022-07-29T15:31:51;43.26;21.12
63976;DHT22;50167;47.958;21.780;2022-07-29T15:34:17;43.53;21.33
63976;DHT22;50167;47.958;21.780;2022-07-29T15:36:45;43.75;21.05
63976;DHT22;50167;47.958;21.780;2022-07-29T15:39:11;43.79;21.30
63976;DHT22;50167;47.958;21.780;2022-07-29T15:41:38;43.67;20.87
63976;DHT22;50167;47.958;21.780;2022-07-29T15:44:08;43.35;21.19
63976;DHT22;50167;47.958;21.780;2022-07-29T15:49:37;41.81;21.92
63976;DHT22;50167;47.958;21.780;2022-07-29T15:52:09;40.95;22.47
63976;DHT22;50167;47.958;21.780;2022-07-29T15:54:33;40.07;22.94
63976;DHT22;50167;47.958;21.780;2022-07-29T15:57:01;39.35;23.17
63976;DHT22;50167;47.958;21.780;2022-07-29T15:59:26;38.80;23.86
63976;DHT22;50167;47.958;21.780;2022-07-29T16:01:53;38.35;23.86
63976;DHT22;50167;47.958;21.780;2022-07-29T16:04:19;37.84;24.93
63976;DHT22;50167;47.958;21.780;2022-07-29T16:06:46;37.30;25.07
63976;DHT22;50167;47.958;21.780;2022-07-29T16:09:16;36.83;25.64
63976;DHT22;50167;47.958;21.780;2022-07-29T16:11:43;36.38;25.93
63976;DHT22;50167;47.958;21.780;2022-07-29T16:14:11;36.00;26.45
63976;DHT22;50167;47.958;21.780;2022-07-29T16:16:42;35.72;26.15
63976;DHT22;50167;47.958;21.780;2022-07-29T16:19:08;35.51;27.09
63976;DHT22;50167;47.958;21.780;2022-07-29T16:21:35;35.38;27.40
63976;DHT22;50167;47.958;21.780;2022-07-29T16:24:16;35.16;27.99
63976;DHT22;50167;47.958;21.780;2022-07-29T16:26:45;34.91;28.51
63976;DHT22;50167;47.958;21.780;2022-07-29T16:29:19;34.67;28.38
63976;DHT22;50167;47.958;21.780;2022-07-29T16:31:45;34.46;28.49